Time,TemperatureF,DewpointF,PressureIn,WindDirection,WindDirectionDegrees,WindSpeedMPH,WindSpeedGustMPH,Humidity,HourlyPrecipIn,Conditions,Clouds,dailyrainin,SoftwareType,DateUTC
2013-09-29 00:03:00,31.3,27.0,30.25,North,7,0.0,1.0,83,0.00,,,0.00,weatherlink.com 1.10,2013-09-29 06:03:00,
2013-09-29 00:18:00,30.4,26.0,30.25,NW,319,0.0,4.0,84,0.00,,,0.00,weatherlink.com 1.10,2013-09-29 06:18:00,
2013-09-29 00:33:00,30.8,26.0,30.25,North,354,1.0,3.0,83,0.00,,,0.00,weatherlink.com 1.10,2013-09-29 06:33:00,
2013-09-29 00:48:00,30.2,26.0,30.25,NNW,338,0.0,2.0,84,0.00,,,0.00,weatherlink.com 1.10,2013-09-29 06:48:00,
2013-09-29 01:03:00,29.7,25.0,30.25,North,358,0.0,1.0,84,0.00,,,0.00,weatherlink.com 1.10,2013-09-29 07:03:00,
2013-09-29 01:18:00,30.2,26.0,30.25,NNW,340,3.0,4.0,84,0.00,,,0.00,weatherlink.com 1.10,2013-09-29 07:18:00,
2013-09-29 01:33:00,29.8,26.0,30.25,NW,319,1.0,4.0,85,0.00,,,0.00,weatherlink.com 1.10,2013-09-29 07:33:00,
2013-09-29 01:48:00,28.8,25.0,30.25,NW,319,0.0,1.0,86,0.00,,,0.00,weatherlink.com 1.10,2013-09-29 07:48:00,
2013-09-29 02:03:00,29.0,25.0,30.26,NNW,348,1.0,2.0,86,0.00,,,0.00,weatherlink.com 1.10,2013-09-29 08:03:00,
2013-09-29 02:18:00,28.3,25.0,30.25,North,352,2.0,2.0,87,0.00,,,0.00,weatherlink.com 1.10,2013-09-29 08:18:00,
2013-09-29 02:33:00,28.1,25.0,30.25,NNW,338,0.0,2.0,87,0.00,,,0.00,weatherlink.com 1.10,2013-09-29 08:33:00,
2013-09-29 02:48:00,28.1,25.0,30.25,NNE,15,0.0,1.0,88,0.00,,,0.00,weatherlink.com 1.10,2013-09-29 08:48:00,
2013-09-29 03:03:00,27.7,24.0,30.25,NNW,333,0.0,0.0,87,0.00,,,0.00,weatherlink.com 1.10,2013-09-29 09:03:00,
2013-09-29 03:18:00,27.1,24.0,30.25,WNW,291,0.0,1.0,87,0.00,,,0.00,weatherlink.com 1.10,2013-09-29 09:18:00,
2013-09-29 03:33:00,27.3,24.0,30.25,North,352,2.0,3.0,88,0.00,,,0.00,weatherlink.com 1.10,2013-09-29 09:33:00,
2013-09-29 03:48:00,26.3,23.0,30.25,NNW,345,0.0,0.0,87,0.00,,,0.00,weatherlink.com 1.10,2013-09-29 09:48:00,
2013-09-29 04:03:00,26.3,24.0,30.25,North,352,0.0,2.0,90,0.00,,,0.00,weatherlink.com 1.10,2013-09-29 10:03:00,
2013-09-29 04:19:00,26.1,23.0,30.25,North,4,2.0,2.0,89,0.00,,,0.00,weatherlink.com 1.10,2013-09-29 10:19:00,
2013-09-29 04:34:00,26.2,23.0,30.25,North,354,0.0,0.0,88,0.00,,,0.00,weatherlink.com 1.10,2013-09-29 10:34:00,
2013-09-29 04:49:00,25.8,23.0,30.25,North,354,0.0,0.0,90,0.00,,,0.00,weatherlink.com 1.10,2013-09-29 10:49:00,
2013-09-29 05:04:00,25.4,23.0,30.25,NNW,342,0.0,0.0,89,0.00,,,0.00,weatherlink.com 1.10,2013-09-29 11:04:00,
2013-09-29 05:19:00,25.5,23.0,30.25,NNW,339,0.0,0.0,89,0.00,,,0.00,weatherlink.com 1.10,2013-09-29 11:19:00,
2013-09-29 05:34:00,24.5,22.0,30.25,NW,325,0.0,0.0,88,0.00,,,0.00,weatherlink.com 1.10,2013-09-29 11:34:00,
2013-09-29 05:49:00,24.7,22.0,30.25,NNE,25,0.0,0.0,90,0.00,,,0.00,weatherlink.com 1.10,2013-09-29 11:49:00,
2013-09-29 06:04:00,25.1,22.0,30.26,NNW,342,0.0,0.0,88,0.00,,,0.00,weatherlink.com 1.10,2013-09-29 12:04:00,
2013-09-29 06:19:00,24.5,22.0,30.26,NNW,342,0.0,0.0,89,0.00,,,0.00,weatherlink.com 1.10,2013-09-29 12:19:00,
2013-09-29 06:34:00,24.1,22.0,30.25,NNW,338,0.0,0.0,90,0.00,,,0.00,weatherlink.com 1.10,2013-09-29 12:34:00,
2013-09-29 06:49:00,23.9,21.0,30.25,NNW,338,0.0,0.0,90,0.00,,,0.00,weatherlink.com 1.10,2013-09-29 12:49:00,
2013-09-29 07:04:00,24.1,22.0,30.26,NNW,340,1.0,3.0,91,0.00,,,0.00,weatherlink.com 1.10,2013-09-29 13:04:00,
2013-09-29 07:19:00,23.5,21.0,30.27,NNW,340,0.0,0.0,89,0.00,,,0.00,weatherlink.com 1.10,2013-09-29 13:19:00,
2013-09-29 07:34:00,23.2,21.0,30.27,NNW,342,0.0,1.0,89,0.00,,,0.00,weatherlink.com 1.10,2013-09-29 13:34:00,
2013-09-29 07:49:00,26.8,24.0,30.27,NNW,342,0.0,0.0,89,0.00,,,0.00,weatherlink.com 1.10,2013-09-29 13:49:00,
2013-09-29 08:04:00,29.1,25.0,30.26,NNE,18,0.0,0.0,83,0.00,,,0.00,weatherlink.com 1.10,2013-09-29 14:04:00,
2013-09-29 08:19:00,31.4,26.0,30.26,NNE,18,0.0,0.0,79,0.00,,,0.00,weatherlink.com 1.10,2013-09-29 14:19:00,
2013-09-29 08:34:00,32.3,25.0,30.26,ENE,68,0.0,0.0,74,0.00,,,0.00,weatherlink.com 1.10,2013-09-29 14:34:00,
2013-09-29 08:49:00,33.3,26.0,30.25,ESE,102,0.0,1.0,75,0.00,,,0.00,weatherlink.com 1.10,2013-09-29 14:49:00,
2013-09-29 09:04:00,36.0,27.0,30.25,ESE,103,0.0,0.0,71,0.00,,,0.00,weatherlink.com 1.10,2013-09-29 15:04:00,
2013-09-29 09:19:00,37.2,26.0,30.24,NNW,346,0.0,0.0,63,0.00,,,0.00,weatherlink.com 1.10,2013-09-29 15:19:00,
2013-09-29 09:34:00,37.6,26.0,30.23,East,85,0.0,0.0,63,0.00,,,0.00,weatherlink.com 1.10,2013-09-29 15:34:00,
2013-09-29 09:49:00,38.8,25.0,30.23,ENE,72,0.0,2.0,57,0.00,,,0.00,weatherlink.com 1.10,2013-09-29 15:49:00,
2013-09-29 10:04:00,40.6,24.0,30.23,SSW,210,1.0,2.0,53,0.00,,,0.00,weatherlink.com 1.10,2013-09-29 16:04:00,
2013-09-29 10:19:00,41.9,27.0,30.22,South,191,0.0,2.0,55,0.00,,,0.00,weatherlink.com 1.10,2013-09-29 16:19:00,
2013-09-29 10:35:00,42.6,25.0,30.21,ESE,109,0.0,3.0,51,0.00,,,0.00,weatherlink.com 1.10,2013-09-29 16:35:00,
2013-09-29 10:50:00,45.3,24.0,30.20,SE,145,1.0,2.0,44,0.00,,,0.00,weatherlink.com 1.10,2013-09-29 16:50:00,
2013-09-29 11:05:00,45.9,25.0,30.19,ENE,58,1.0,3.0,45,0.00,,,0.00,weatherlink.com 1.10,2013-09-29 17:05:00,
2013-09-29 11:20:00,47.6,26.0,30.17,East,89,0.0,2.0,43,0.00,,,0.00,weatherlink.com 1.10,2013-09-29 17:20:00,
2013-09-29 11:35:00,49.7,26.0,30.16,NE,37,3.0,3.0,40,0.00,,,0.00,weatherlink.com 1.10,2013-09-29 17:35:00,
2013-09-29 11:50:00,52.6,29.0,30.14,South,174,1.0,2.0,41,0.00,,,0.00,weatherlink.com 1.10,2013-09-29 17:50:00,
2013-09-29 12:05:00,54.6,31.0,30.12,SSW,193,4.0,7.0,41,0.00,,,0.00,weatherlink.com 1.10,2013-09-29 18:05:00,
2013-09-29 12:20:00,56.6,29.0,30.11,ESE,123,3.0,5.0,35,0.00,,,0.00,weatherlink.com 1.10,2013-09-29 18:20:00,
2013-09-29 12:35:00,59.0,25.0,30.10,West,280,5.0,8.0,27,0.00,,,0.00,weatherlink.com 1.10,2013-09-29 18:35:00,
2013-09-29 12:50:00,60.5,21.0,30.09,SSW,210,7.0,12.0,22,0.00,,,0.00,weatherlink.com 1.10,2013-09-29 18:50:00,
2013-09-29 13:05:00,59.9,22.0,30.08,SW,235,11.0,15.0,23,0.00,,,0.00,weatherlink.com 1.10,2013-09-29 19:05:00,
2013-09-29 13:20:00,60.3,23.0,30.07,SSE,166,3.0,13.0,24,0.00,,,0.00,weatherlink.com 1.10,2013-09-29 19:20:00,
2013-09-29 13:35:00,61.3,20.0,30.05,SW,229,5.0,8.0,20,0.00,,,0.00,weatherlink.com 1.10,2013-09-29 19:35:00,
2013-09-29 13:50:00,61.7,20.0,30.04,SW,231,5.0,12.0,20,0.00,,,0.00,weatherlink.com 1.10,2013-09-29 19:50:00,
2013-09-29 14:05:00,61.9,20.0,30.03,WNW,294,5.0,15.0,20,0.00,,,0.00,weatherlink.com 1.10,2013-09-29 20:05:00,
2013-09-29 14:20:00,62.2,20.0,30.02,NE,53,0.0,15.0,20,0.00,,,0.00,weatherlink.com 1.10,2013-09-29 20:20:00,
2013-09-29 14:35:00,62.6,20.0,30.01,West,264,6.0,16.0,19,0.00,,,0.00,weatherlink.com 1.10,2013-09-29 20:35:00,
2013-09-29 14:50:00,62.9,23.0,30.01,WNW,288,9.0,14.0,22,0.00,,,0.00,weatherlink.com 1.10,2013-09-29 20:50:00,
2013-09-29 15:05:00,63.0,21.0,30.00,WSW,249,5.0,14.0,20,0.00,,,0.00,weatherlink.com 1.10,2013-09-29 21:05:00,
2013-09-29 15:21:00,63.1,20.0,30.00,West,266,6.0,18.0,19,0.00,,,0.00,weatherlink.com 1.10,2013-09-29 21:21:00,
2013-09-29 15:36:00,63.2,21.0,30.00,WNW,284,7.0,15.0,20,0.00,,,0.00,weatherlink.com 1.10,2013-09-29 21:36:00,
2013-09-29 15:51:00,63.6,25.0,30.00,West,274,5.0,14.0,23,0.00,,,0.00,weatherlink.com 1.10,2013-09-29 21:51:00,
2013-09-29 16:06:00,63.6,25.0,29.99,SW,229,4.0,15.0,23,0.00,,,0.00,weatherlink.com 1.10,2013-09-29 22:06:00,
2013-09-29 16:21:00,63.3,25.0,29.98,SSW,211,10.0,16.0,23,0.00,,,0.00,weatherlink.com 1.10,2013-09-29 22:21:00,
2013-09-29 16:36:00,62.8,25.0,29.98,West,276,6.0,15.0,24,0.00,,,0.00,weatherlink.com 1.10,2013-09-29 22:36:00,
2013-09-29 16:51:00,62.0,30.0,29.98,SSW,210,6.0,11.0,30,0.00,,,0.00,weatherlink.com 1.10,2013-09-29 22:51:00,
2013-09-29 17:06:00,59.0,30.0,29.98,SSW,212,9.0,12.0,34,0.00,,,0.00,weatherlink.com 1.10,2013-09-29 23:06:00,
2013-09-29 17:21:00,57.8,31.0,29.98,SSW,198,11.0,13.0,36,0.00,,,0.00,weatherlink.com 1.10,2013-09-29 23:21:00,
2013-09-29 17:36:00,56.5,32.0,29.98,SW,218,9.0,12.0,39,0.00,,,0.00,weatherlink.com 1.10,2013-09-29 23:36:00,
2013-09-29 17:51:00,57.5,31.0,29.99,SSW,198,7.0,13.0,36,0.00,,,0.00,weatherlink.com 1.10,2013-09-29 23:51:00,
2013-09-29 18:06:00,55.9,28.0,29.99,SW,215,3.0,11.0,35,0.00,,,0.00,weatherlink.com 1.10,2013-09-30 00:06:00,
2013-09-29 18:21:00,55.1,28.0,30.00,WSW,255,6.0,6.0,35,0.00,,,0.00,weatherlink.com 1.10,2013-09-30 00:21:00,
2013-09-29 18:36:00,54.3,28.0,30.00,WNW,293,2.0,7.0,36,0.00,,,0.00,weatherlink.com 1.10,2013-09-30 00:36:00,
2013-09-29 18:51:00,52.2,31.0,30.01,ENE,67,2.0,3.0,45,0.00,,,0.00,weatherlink.com 1.10,2013-09-30 00:51:00,
2013-09-29 19:06:00,49.9,30.0,30.02,NE,41,2.0,4.0,47,0.00,,,0.00,weatherlink.com 1.10,2013-09-30 01:06:00,
2013-09-29 19:21:00,49.0,28.0,30.02,North,353,0.0,1.0,45,0.00,,,0.00,weatherlink.com 1.10,2013-09-30 01:21:00,
2013-09-29 19:36:00,48.5,29.0,30.02,NNW,346,1.0,5.0,47,0.00,,,0.00,weatherlink.com 1.10,2013-09-30 01:36:00,
2013-09-29 19:51:00,46.1,31.0,30.03,NE,41,0.0,5.0,56,0.00,,,0.00,weatherlink.com 1.10,2013-09-30 01:51:00,
2013-09-29 20:06:00,44.8,30.0,30.03,NNW,342,2.0,2.0,57,0.00,,,0.00,weatherlink.com 1.10,2013-09-30 02:06:00,
2013-09-29 20:21:00,43.4,32.0,30.03,NNW,342,1.0,5.0,64,0.00,,,0.00,weatherlink.com 1.10,2013-09-30 02:21:00,
2013-09-29 20:37:00,41.2,31.0,30.04,NNE,18,0.0,2.0,67,0.00,,,0.00,weatherlink.com 1.10,2013-09-30 02:37:00,
2013-09-29 20:51:00,41.0,31.0,30.04,WSW,240,2.0,3.0,67,0.00,,,0.00,weatherlink.com 1.10,2013-09-30 02:51:00,
2013-09-29 21:06:00,41.0,30.0,30.05,NNE,23,2.0,2.0,66,0.00,,,0.00,weatherlink.com 1.10,2013-09-30 03:06:00,
2013-09-29 21:21:00,39.1,29.0,30.05,NW,324,3.0,4.0,66,0.00,,,0.00,weatherlink.com 1.10,2013-09-30 03:21:00,
2013-09-29 21:36:00,38.9,27.0,30.05,North,354,3.0,5.0,63,0.00,,,0.00,weatherlink.com 1.10,2013-09-30 03:36:00,
2013-09-29 21:51:00,39.4,27.0,30.06,NNE,15,3.0,10.0,61,0.00,,,0.00,weatherlink.com 1.10,2013-09-30 03:51:00,
2013-09-29 22:06:00,38.4,27.0,30.06,NW,313,1.0,2.0,63,0.00,,,0.00,weatherlink.com 1.10,2013-09-30 04:06:00,
2013-09-29 22:21:00,38.4,27.0,30.07,NNW,340,3.0,8.0,65,0.00,,,0.00,weatherlink.com 1.10,2013-09-30 04:21:00,
2013-09-29 22:36:00,37.1,27.0,30.07,WNW,289,1.0,4.0,67,0.00,,,0.00,weatherlink.com 1.10,2013-09-30 04:36:00,
2013-09-29 22:51:00,36.8,26.0,30.08,SE,130,0.0,3.0,66,0.00,,,0.00,weatherlink.com 1.10,2013-09-30 04:51:00,
2013-09-29 23:06:00,35.9,27.0,30.09,SE,142,0.0,3.0,70,0.00,,,0.00,weatherlink.com 1.10,2013-09-30 05:06:00,
2013-09-29 23:21:00,34.2,26.0,30.09,West,259,0.0,3.0,73,0.00,,,0.00,weatherlink.com 1.10,2013-09-30 05:21:00,
2013-09-29 23:36:00,34.5,27.0,30.09,NW,309,3.0,4.0,74,0.00,,,0.00,weatherlink.com 1.10,2013-09-30 05:36:00,
2013-09-29 23:51:00,34.0,26.0,30.10,NNW,328,1.0,5.0,73,0.00,,,0.00,weatherlink.com 1.10,2013-09-30 05:51:00,